Time;durP1;ratioP1;P1;durP2;ratioP2;P2;SDS_P1;SDS_P2;PMS_P1;PMS_P2;Temp;Humidity;BMP_temperature;BMP_pressure;BME280_temperature;BME280_humidity;BME280_pressure;Samples;Min_cycle;Max_cycle;Signal;HPM_P1;HPM_P2
2021/05/17 00:00:58;;;;;;;1999.90;999.90;;;;;;;10.76;100.00;95066.34;5074144;28;20253;-57
2021/05/17 00:03:25;;;;;;;1999.90;999.90;;;;;;;10.76;100.00;95059.34;5073016;28;20230;-58
2021/05/17 00:05:53;;;;;;;1999.90;999.90;;;;;;;10.80;100.00;95062.09;5073466;28;20201;-58
2021/05/17 00:08:21;;;;;;;1999.90;999.90;;;;;;;10.74;100.00;95058.13;5073065;28;20232;-58
2021/05/17 00:10:49;;;;;;;1999.90;999.90;;;;;;;10.70;100.00;95062.41;5072990;28;20188;-58
2021/05/17 00:13:16;;;;;;;1999.90;999.90;;;;;;;10.78;100.00;95059.03;5072887;28;20270;-58
2021/05/17 00:15:43;;;;;;;1999.90;999.90;;;;;;;10.74;100.00;95069.28;5072899;28;20203;-57
2021/05/17 00:18:10;;;;;;;1999.90;999.90;;;;;;;10.63;100.00;95068.03;5073051;28;20288;-59
2021/05/17 00:20:38;;;;;;;1999.90;999.90;;;;;;;10.59;100.00;95081.94;5072928;28;20295;-59
2021/05/17 00:23:05;;;;;;;1999.90;999.90;;;;;;;10.62;100.00;95079.50;5072885;28;20254;-59
2021/05/17 00:25:33;;;;;;;1999.90;999.90;;;;;;;10.55;100.00;95079.19;5072797;28;20196;-59
2021/05/17 00:28:00;;;;;;;1999.90;999.90;;;;;;;10.50;100.00;95076.72;5073071;28;20232;-59
2021/05/17 00:30:30;;;;;;;1999.90;999.90;;;;;;;10.47;100.00;95074.72;5072811;28;20253;-59
2021/05/17 00:32:58;;;;;;;1999.90;999.90;;;;;;;10.47;100.00;95074.72;5072677;28;20203;-59
2021/05/17 00:35:25;;;;;;;1999.90;999.90;;;;;;;10.53;100.00;95067.56;5072731;28;20196;-59
2021/05/17 00:37:53;;;;;;;1999.90;999.90;;;;;;;10.47;100.00;95069.53;5072889;28;20196;-59
2021/05/17 00:40:22;;;;;;;1999.90;999.90;;;;;;;10.58;100.00;95077.81;5072744;28;20196;-59
2021/05/17 00:42:52;;;;;;;1999.90;999.90;;;;;;;10.68;100.00;95070.50;5073086;28;20192;-60
2021/05/17 00:45:21;;;;;;;1999.90;999.90;;;;;;;10.63;100.00;95078.44;5072259;28;20239;-59
2021/05/17 00:47:49;;;;;;;1999.90;999.90;;;;;;;10.75;100.00;95073.41;5072999;28;20755;-60
2021/05/17 00:50:19;;;;;;;1999.90;999.90;;;;;;;10.76;100.00;95068.97;5072269;28;20671;-59
2021/05/17 00:52:46;;;;;;;1999.90;999.90;;;;;;;10.72;100.00;95061.00;5072661;28;20201;-59
2021/05/17 00:55:15;;;;;;;1999.90;999.90;;;;;;;10.70;100.00;95062.41;5072050;28;20192;-59
2021/05/17 00:57:43;;;;;;;1999.90;999.90;;;;;;;10.73;100.00;95069.59;5072432;28;20200;-59
2021/05/17 01:00:14;;;;;;;1999.90;999.90;;;;;;;10.66;100.00;95062.22;5071919;28;20236;-59
2021/05/17 01:02:41;;;;;;;1999.90;999.90;;;;;;;10.77;100.00;95067.91;5072577;28;20318;-59
2021/05/17 01:05:10;;;;;;;1999.90;999.90;;;;;;;10.81;100.00;95070.66;5072143;28;20224;-59
2021/05/17 01:07:37;;;;;;;1999.90;999.90;;;;;;;10.61;100.00;95072.03;5071808;28;20228;-59
2021/05/17 01:10:06;;;;;;;1999.90;999.90;;;;;;;10.64;100.00;95069.56;5072183;28;20204;-60
2021/05/17 01:12:34;;;;;;;1999.90;999.90;;;;;;;10.65;100.00;95072.94;5071477;28;20587;-59
2021/05/17 01:15:01;;;;;;;1999.90;999.90;;;;;;;10.71;100.00;95072.47;5071836;28;20656;-59
2021/05/17 01:17:29;;;;;;;1999.90;999.90;;;;;;;10.69;100.00;95076.47;5071520;28;20204;-59
2021/05/17 01:20:06;;;;;;;1999.90;999.90;;;;;;;10.74;100.00;95078.91;5071237;28;20599;-59
2021/05/17 01:22:47;;;;;;;1999.90;999.90;;;;;;;10.74;100.00;95084.09;5071278;28;20196;-59
2021/05/17 01:25:17;;;;;;;1999.90;999.90;;;;;;;10.73;100.00;95087.78;5071357;28;20717;-59
2021/05/17 01:27:45;;;;;;;1999.90;999.90;;;;;;;10.73;100.00;95092.97;5071110;28;20315;-59
2021/05/17 01:30:13;;;;;;;1999.90;999.90;;;;;;;10.73;100.00;95095.56;5071392;28;20193;-59
2021/05/17 01:32:40;;;;;;;1999.90;999.90;;;;;;;10.73;100.00;95098.16;5071193;28;20260;-58
2021/05/17 01:35:10;;;;;;;1999.90;999.90;;;;;;;10.80;100.00;95090.69;5070978;28;20192;-58
2021/05/17 01:37:38;;;;;;;1999.90;999.90;;;;;;;10.77;100.00;95089.47;5071119;28;20818;-59
2021/05/17 01:40:07;;;;;;;1999.90;999.90;;;;;;;10.88;100.00;95079.53;5071477;28;20720;-59
2021/05/17 01:42:39;;;;;;;1999.90;999.90;;;;;;;10.89;100.00;95068.06;5071181;28;20205;-58
2021/05/17 01:45:08;;;;;;;1999.90;999.90;;;;;;;10.86;100.00;95065.31;5070874;28;20201;-59
2021/05/17 01:47:40;;;;;;;1999.90;999.90;;;;;;;10.90;100.00;95061.03;5070632;28;20228;-59
2021/05/17 01:50:08;;;;;;;1999.90;999.90;;;;;;;10.93;100.00;95065.63;5071403;28;20208;-59
2021/05/17 01:52:37;;;;;;;1999.90;999.90;;;;;;;10.88;100.00;95063.94;5070780;28;20306;-59
2021/05/17 01:55:06;;;;;;;1999.90;999.90;;;;;;;10.98;100.00;95063.63;5070887;28;20200;-58
2021/05/17 01:57:33;;;;;;;1999.90;999.90;;;;;;;10.97;100.00;95064.69;5071071;28;20211;-61
2021/05/17 02:00:01;;;;;;;1999.90;999.90;;;;;;;10.94;100.00;95062.72;5070535;28;20380;-58
2021/05/17 02:02:29;;;;;;;1999.90;999.90;;;;;;;10.98;100.00;95063.63;5070716;28;20279;-59
2021/05/17 02:04:56;;;;;;;1999.90;999.90;;;;;;;11.02;100.00;95059.34;5071067;28;20656;-59
2021/05/17 02:07:23;;;;;;;1999.90;999.90;;;;;;;11.02;100.00;95048.94;5070357;28;20189;-58
2021/05/17 02:09:52;;;;;;;1999.90;999.90;;;;;;;11.00;100.00;95038.09;5070582;28;20280;-59
2021/05/17 02:12:22;;;;;;;1999.90;999.90;;;;;;;10.99;100.00;95039.19;5070316;28;20199;-59
2021/05/17 02:14:52;;;;;;;1999.90;999.90;;;;;;;11.03;100.00;95034.88;5070631;28;20204;-57
2021/05/17 02:17:22;;;;;;;1999.90;999.90;;;;;;;11.02;100.00;95043.75;5070586;28;20224;-59
2021/05/17 02:19:49;;;;;;;1999.90;999.90;;;;;;;11.03;100.00;95045.28;5070383;28;20315;-58
2021/05/17 02:22:18;;;;;;;1999.90;999.90;;;;;;;11.15;100.00;95045.44;5070459;28;20563;-59
2021/05/17 02:24:46;;;;;;;1999.90;999.90;;;;;;;11.17;100.00;95045.88;5070129;28;20675;-58
2021/05/17 02:27:14;;;;;;;1999.90;999.90;;;;;;;11.18;100.00;95052.63;5070376;28;20200;-59
2021/05/17 02:29:41;;;;;;;1999.90;999.90;;;;;;;11.28;100.00;95051.53;5070275;28;20205;-58
2021/05/17 02:32:09;;;;;;;1999.90;999.90;;;;;;;11.23;100.00;95054.31;5070166;28;20192;-59
2021/05/17 02:34:37;;;;;;;1999.90;999.90;;;;;;;11.16;100.00;95053.97;5069466;28;20193;-59
2021/05/17 02:37:04;;;;;;;1999.90;999.90;;;;;;;11.26;100.00;95052.94;5069909;28;20199;-60
2021/05/17 02:39:31;;;;;;;1999.90;999.90;;;;;;;11.14;100.00;95048.34;5070300;28;20207;-59
2021/05/17 02:42:02;;;;;;;1999.90;999.90;;;;;;;11.11;100.00;95048.94;5070280;28;20682;-59
2021/05/17 02:44:29;;;;;;;1999.90;999.90;;;;;;;11.14;100.00;95056.16;5070074;28;20196;-59
2021/05/17 02:46:57;;;;;;;1999.90;999.90;;;;;;;11.14;100.00;95067.31;5070014;28;20279;-59
2021/05/17 02:49:29;;;;;;;1999.90;999.90;;;;;;;11.03;100.00;95070.53;5069932;28;20220;-59
2021/05/17 02:51:59;;;;;;;1999.90;999.90;;;;;;;11.06;100.00;95068.06;5070157;28;20249;-59
2021/05/17 02:54:30;;;;;;;1999.90;999.90;;;;;;;11.07;100.00;95074.81;5070266;28;20271;-59
2021/05/17 02:57:09;;;;;;;1999.90;999.90;;;;;;;11.01;100.00;95076.00;5070106;28;20196;-59
2021/05/17 03:00:08;;;;;;;1999.90;999.90;;;;;;;11.01;100.00;95068.22;5069849;28;20201;-58
2021/05/17 03:03:03;;;;;;;1999.90;999.90;;;;;;;11.11;100.00;95067.16;5069625;28;20599;-59
2021/05/17 03:05:33;;;;;;;1999.90;999.90;;;;;;;11.10;100.00;95074.19;5069656;28;20192;-59
2021/05/17 03:08:03;;;;;;;1999.90;999.90;;;;;;;11.06;100.00;95078.47;5069539;28;20232;-58
2021/05/17 03:10:31;;;;;;;1999.90;999.90;;;;;;;11.15;100.00;95081.84;5069902;28;20679;-58
2021/05/17 03:13:03;;;;;;;1999.90;999.90;;;;;;;11.23;100.00;95086.28;5069431;28;20235;-58
2021/05/17 03:15:31;;;;;;;1999.90;999.90;;;;;;;11.23;100.00;95086.28;5069816;28;20228;-58
2021/05/17 03:17:58;;;;;;;1999.90;999.90;;;;;;;11.08;100.00;95085.97;5069631;28;20200;-57
2021/05/17 03:20:26;;;;;;;1999.90;999.90;;;;;;;11.09;100.00;95088.28;5069352;28;20220;-58
2021/05/17 03:22:55;;;;;;;1999.90;999.90;;;;;;;11.00;100.00;95087.50;5069435;28;20196;-58
2021/05/17 03:25:26;;;;;;;1999.90;999.90;;;;;;;11.01;100.00;95088.28;5069475;28;20287;-59
2021/05/17 03:27:53;;;;;;;1999.90;999.90;;;;;;;11.19;100.00;95089.81;5069302;28;20796;-58
2021/05/17 03:30:21;;;;;;;1999.90;999.90;;;;;;;11.10;100.00;95092.41;5069260;28;20196;-59
2021/05/17 03:32:48;;;;;;;1999.90;999.90;;;;;;;10.97;100.00;95095.91;5069425;28;20276;-60
2021/05/17 03:35:15;;;;;;;1999.90;999.90;;;;;;;10.85;100.00;95106.16;5069374;28;20746;-57
2021/05/17 03:37:43;;;;;;;1999.90;999.90;;;;;;;10.86;100.00;95110.25;5069432;28;20189;-59
2021/05/17 03:40:11;;;;;;;1999.90;999.90;;;;;;;10.84;100.00;95114.25;5069364;28;20250;-58
2021/05/17 03:42:39;;;;;;;1999.90;999.90;;;;;;;10.90;100.00;95118.22;5069327;28;20287;-58
2021/05/17 03:45:08;;;;;;;1999.90;999.90;;;;;;;10.99;100.00;95119.00;5069148;28;20694;-59
2021/05/17 03:47:36;;;;;;;1999.90;999.90;;;;;;;11.08;100.00;95115.34;5072070;28;20201;-59
2021/05/17 03:50:04;;;;;;;1999.90;999.90;;;;;;;11.12;100.00;95120.69;5073698;28;20295;-59
2021/05/17 03:52:31;;;;;;;1999.90;999.90;;;;;;;11.20;100.00;95125.91;5073005;28;20196;-59
2021/05/17 03:54:58;;;;;;;1999.90;999.90;;;;;;;11.20;100.00;95122.53;5073007;28;20208;-59
2021/05/17 03:57:24;;;;;;;1999.90;999.90;;;;;;;11.35;100.00;95123.91;5072866;28;20193;-59
2021/05/17 03:59:52;;;;;;;1999.90;999.90;;;;;;;11.36;100.00;95122.81;5072798;28;20248;-58
2021/05/17 04:02:19;;;;;;;1999.90;999.90;;;;;;;11.41;100.00;95120.06;5072877;28;20196;-58
2021/05/17 04:04:54;;;;;;;1999.90;999.90;;;;;;;11.34;100.00;95119.78;5072793;28;20551;-58
2021/05/17 04:15:39;;;;;;;1999.90;999.90;;;;;;;11.41;100.00;95122.66;5072702;28;20195;-60
2021/05/17 04:18:06;;;;;;;1999.90;999.90;;;;;;;11.42;100.00;95119.78;5072409;28;20589;-61
2021/05/17 04:20:35;;;;;;;1999.90;999.90;;;;;;;11.44;100.00;95125.44;5072331;28;20331;-59
2021/05/17 04:23:03;;;;;;;1999.90;999.90;;;;;;;11.44;100.00;95115.03;5072313;28;20188;-59
2021/05/17 04:25:30;;;;;;;1999.90;999.90;;;;;;;11.51;100.00;95114.56;5072230;28;20197;-58
2021/05/17 04:27:57;;;;;;;1999.90;999.90;;;;;;;11.53;100.00;95117.63;5072206;28;20776;-58
2021/05/17 04:30:24;;;;;;;1999.90;999.90;;;;;;;11.59;100.00;95113.81;5072241;28;20200;-58
2021/05/17 04:32:52;;;;;;;1999.90;999.90;;;;;;;11.61;100.00;95107.19;5072151;28;20615;-58
2021/05/17 04:35:19;;;;;;;1999.90;999.90;;;;;;;11.63;100.00;95099.88;5072133;28;20200;-57
2021/05/17 04:37:46;;;;;;;1999.90;999.90;;;;;;;11.81;100.00;95100.59;5072057;28;20241;-59
2021/05/17 04:40:14;;;;;;;1999.90;999.90;;;;;;;11.90;100.00;95103.22;5071970;28;20192;-59
2021/05/17 04:42:41;;;;;;;1999.90;999.90;;;;;;;11.89;100.00;95102.44;5072017;28;20232;-58
2021/05/17 04:45:08;;;;;;;1999.90;999.90;;;;;;;11.95;100.00;95100.44;5072275;28;20646;-58
2021/05/17 04:47:35;;;;;;;1999.90;999.90;;;;;;;12.08;100.00;95095.03;5072370;28;20241;-58
2021/05/17 04:50:03;;;;;;;1999.90;999.90;;;;;;;12.08;100.00;95095.03;5072293;28;20201;-58
2021/05/17 04:52:30;;;;;;;1999.90;999.90;;;;;;;12.11;100.00;95085.03;5072182;28;20227;-58
2021/05/17 04:54:57;;;;;;;1999.90;999.90;;;;;;;12.09;100.00;95087.97;5072026;28;20582;-60
2021/05/17 04:57:24;;;;;;;1999.90;999.90;;;;;;;12.10;100.00;95086.91;5071381;28;20204;-58
2021/05/17 04:59:51;;;;;;;1999.90;999.90;;;;;;;12.08;100.00;95083.84;5071497;28;20219;-59
2021/05/17 05:02:18;;;;;;;1999.90;999.90;;;;;;;11.98;100.00;95092.75;5071500;28;20291;-59
2021/05/17 05:04:44;;;;;;;1999.90;999.90;;;;;;;12.06;100.00;95091.97;5071783;28;20196;-59
2021/05/17 05:07:14;;;;;;;1999.90;999.90;;;;;;;12.07;100.00;95096.09;5071702;28;20246;-59
2021/05/17 05:09:41;;;;;;;1999.90;999.90;;;;;;;12.08;100.00;95091.66;5071645;28;20319;-59
2021/05/17 05:12:08;;;;;;;1999.90;999.90;;;;;;;12.11;100.00;95090.25;5071424;28;20296;-59
2021/05/17 05:14:35;;;;;;;1999.90;999.90;;;;;;;12.08;100.00;95100.25;5071351;28;20715;-58
2021/05/17 05:17:02;;;;;;;1999.90;999.90;;;;;;;12.27;100.00;95096.47;5071296;28;20206;-63
2021/05/17 05:19:29;;;;;;;1999.90;999.90;;;;;;;12.29;100.00;95097.72;5071605;28;20220;-58
2021/05/17 05:21:55;;;;;;;1999.90;999.90;;;;;;;12.28;100.00;95100.63;5072050;28;20201;-58
2021/05/17 05:24:23;;;;;;;1999.90;999.90;;;;;;;12.33;100.00;95101.22;5071491;28;20663;-58
2021/05/17 05:27:11;;;;;;;1999.90;999.90;;;;;;;12.42;100.00;95114.19;5071551;28;20196;-61
2021/05/17 05:29:49;;;;;;;1999.90;999.90;;;;;;;12.52;100.00;95113.84;5071534;28;20224;-58
2021/05/17 05:32:25;;;;;;;1999.90;999.90;;;;;;;12.60;100.00;95120.13;5071765;28;20222;-59
2021/05/17 05:34:52;;;;;;;1999.90;999.90;;;;;;;12.75;100.00;95122.91;5071716;28;20298;-58
2021/05/17 05:37:19;;;;;;;1999.90;999.90;;;;;;;12.90;100.00;95116.41;5072315;28;20204;-59
2021/05/17 05:39:47;;;;;;;1999.90;999.90;;;;;;;12.91;100.00;95121.28;5071493;28;20572;-59
2021/05/17 05:42:13;;;;;;;1999.90;999.90;;;;;;;13.00;100.00;95133.53;5071660;28;20250;-61
2021/05/17 05:44:43;;;;;;;1999.90;999.90;;;;;;;13.18;100.00;95117.47;5071756;28;20193;-59
2021/05/17 05:47:15;;;;;;;1999.90;999.90;;;;;;;13.19;100.00;95126.06;5071554;28;20193;-59
2021/05/17 05:49:42;;;;;;;1999.90;999.90;;;;;;;13.10;100.00;95109.69;5071140;28;20384;-60
2021/05/17 05:52:09;;;;;;;1999.90;999.90;;;;;;;13.11;100.00;95111.97;5071401;28;20746;-59
2021/05/17 05:54:36;;;;;;;1999.90;999.90;;;;;;;13.13;100.00;95101.25;5071334;28;20200;-59
2021/05/17 05:57:06;;;;;;;1999.90;999.90;;;;;;;13.42;100.00;95097.78;5071469;28;20195;-57
2021/05/17 05:59:33;;;;;;;1999.90;999.90;;;;;;;13.61;100.00;95087.63;5071597;28;20200;-60
2021/05/17 06:02:00;;;;;;;1999.90;999.90;;;;;;;13.59;100.00;95072.31;5070868;28;20678;-60
2021/05/17 06:04:27;;;;;;;1999.90;999.90;;;;;;;13.62;100.00;95082.09;5071415;28;20195;-59
2021/05/17 06:06:54;;;;;;;1999.90;999.90;;;;;;;13.74;100.00;95076.16;5071446;28;20200;-60
2021/05/17 06:09:21;;;;;;;1999.90;999.90;;;;;;;13.93;100.00;95060.72;5070788;28;20644;-57
2021/05/17 06:11:48;;;;;;;1999.90;999.90;;;;;;;13.61;100.00;95074.56;5071338;28;20245;-58
2021/05/17 06:14:17;;;;;;;1999.90;999.90;;;;;;;13.52;100.00;95077.28;5071484;28;20239;-59
2021/05/17 06:16:44;;;;;;;1999.90;999.90;;;;;;;13.48;100.00;95068.56;5071012;28;20196;-58
2021/05/17 06:19:11;;;;;;;1999.90;999.90;;;;;;;13.41;100.00;95064.94;5070836;28;20188;-59
2021/05/17 06:21:39;;;;;;;1999.90;999.90;;;;;;;13.52;100.00;95053.78;5071136;28;20197;-59
2021/05/17 06:24:08;;;;;;;1999.90;999.90;;;;;;;13.60;100.00;95046.97;5071504;28;20660;-59
2021/05/17 06:26:38;;;;;;;1999.90;999.90;;;;;;;13.75;100.00;95049.69;5071279;28;20192;-58
2021/05/17 06:29:06;;;;;;;1999.90;999.90;;;;;;;13.91;100.00;95057.66;5071168;28;20266;-58
2021/05/17 06:31:34;;;;;;;1999.90;999.90;;;;;;;14.23;100.00;95069.91;5071456;28;20200;-58
2021/05/17 06:34:02;;;;;;;1999.90;999.90;;;;;;;14.53;99.79;95083.56;5071352;28;20699;-57
2021/05/17 06:36:29;;;;;;;1999.90;999.90;;;;;;;14.62;100.00;95093.91;5071132;28;20193;-58
2021/05/17 06:38:56;;;;;;;1999.90;999.90;;;;;;;14.71;100.00;95083.31;5070740;28;20193;-59
2021/05/17 06:41:23;;;;;;;1999.90;999.90;;;;;;;14.79;100.00;95074.59;5071305;28;20222;-58
2021/05/17 06:43:50;;;;;;;1999.90;999.90;;;;;;;14.82;98.17;95063.47;5070885;28;20656;-59
2021/05/17 06:46:18;;;;;;;1999.90;999.90;;;;;;;15.05;96.80;95062.63;5070618;28;20192;-58
2021/05/17 06:48:46;;;;;;;1999.90;999.90;;;;;;;15.31;95.39;95061.47;5071126;28;20247;-58
2021/05/17 06:51:15;;;;;;;1999.90;999.90;;;;;;;15.24;96.71;95056.78;5071274;28;20226;-59
2021/05/17 06:53:42;;;;;;;1999.90;999.90;;;;;;;15.44;97.41;95053.22;5070854;28;20227;-59
2021/05/17 06:56:15;;;;;;;1999.90;999.90;;;;;;;15.90;93.78;95048.44;5070445;28;20279;-58
2021/05/17 06:58:54;;;;;;;1999.90;999.90;;;;;;;16.11;91.17;95054.19;5070909;28;20690;-58
2021/05/17 07:01:21;;;;;;;1999.90;999.90;;;;;;;16.23;89.33;95061.97;5070857;28;20273;-58
2021/05/17 07:03:49;;;;;;;1999.90;999.90;;;;;;;16.36;90.73;95055.53;5070764;28;20638;-59
2021/05/17 07:06:19;;;;;;;1999.90;999.90;;;;;;;16.26;88.70;95061.28;5070833;28;20210;-58
2021/05/17 07:11:45;;;;;;;1999.90;999.90;;;;;;;16.47;92.46;95045.28;5070606;28;20628;-59
2021/05/17 07:14:11;;;;;;;1999.90;999.90;;;;;;;16.91;87.42;95042.50;5070614;28;20239;-60
2021/05/17 07:16:38;;;;;;;1999.90;999.90;;;;;;;16.73;90.20;95047.38;5070535;28;20195;-59
2021/05/17 07:19:06;;;;;;;1999.90;999.90;;;;;;;17.30;87.58;95056.41;5070410;28;20197;-58
2021/05/17 07:24:20;;;;;;;1999.90;999.90;;;;;;;17.43;85.65;95057.78;5074389;28;20223;-59
2021/05/17 07:26:48;;;;;;;1999.90;999.90;;;;;;;17.78;87.27;95061.09;5074329;28;20663;-58
2021/05/17 07:29:16;;;;;;;1999.90;999.90;;;;;;;17.74;84.80;95062.13;5074764;28;20306;-59
2021/05/17 07:31:43;;;;;;;1999.90;999.90;;;;;;;17.84;85.47;95057.03;5074284;28;20200;-60
2021/05/17 07:34:11;;;;;;;1999.90;999.90;;;;;;;17.69;84.11;95057.91;5074393;28;20204;-60
2021/05/17 07:36:37;;;;;;;1999.90;999.90;;;;;;;17.71;85.30;95049.69;5074014;28;20203;-59
2021/05/17 07:39:05;;;;;;;1999.90;999.90;;;;;;;17.89;88.65;95032.34;5074286;28;20192;-61
2021/05/17 07:41:32;;;;;;;1999.90;999.90;;;;;;;17.84;86.41;95036.00;5074407;28;20715;-60
2021/05/17 07:43:59;;;;;;;1999.90;999.90;;;;;;;17.73;87.73;95029.84;5074452;28;20192;-59
2021/05/17 07:46:26;;;;;;;1999.90;999.90;;;;;;;17.38;87.09;95039.69;5074012;28;20303;-59
2021/05/17 07:51:35;;;;;;;1999.90;999.90;;;;;;;17.82;87.82;95006.72;5071803;28;20197;-59
2021/05/17 07:54:03;;;;;;;1999.90;999.90;;;;;;;17.90;86.72;95008.34;5073932;28;20197;-58
2021/05/17 07:56:30;;;;;;;1999.90;999.90;;;;;;;18.00;85.25;95002.47;5073668;28;20729;-59
2021/05/17 07:58:57;;;;;;;1999.90;999.90;;;;;;;17.99;84.98;95000.97;5073718;28;20679;-59
2021/05/17 08:01:24;;;;;;;1999.90;999.90;;;;;;;17.85;87.27;94995.47;5073112;28;20199;-59
2021/05/17 08:03:51;;;;;;;1999.90;999.90;;;;;;;17.73;87.84;94998.31;5073716;28;20330;-59
2021/05/17 08:06:18;;;;;;;1999.90;999.90;;;;;;;17.84;88.88;95009.72;5073587;28;20571;-59
2021/05/17 08:08:46;;;;;;;1999.90;999.90;;;;;;;17.60;89.33;95010.06;5072923;28;20212;-59
2021/05/17 08:11:13;;;;;;;1999.90;999.90;;;;;;;17.66;90.02;95005.28;5072732;28;20283;-60
2021/05/17 08:13:40;;;;;;;1999.90;999.90;;;;;;;17.81;88.88;95020.19;5072714;28;20243;-59
2021/05/17 08:16:09;;;;;;;1999.90;999.90;;;;;;;17.95;87.07;95015.94;5072552;28;20240;-59
2021/05/17 08:18:37;;;;;;;1999.90;999.90;;;;;;;18.14;84.97;95016.97;5072486;28;20575;-59
2021/05/17 08:21:04;;;;;;;1999.90;999.90;;;;;;;18.11;87.36;95001.91;5072319;28;20216;-60
2021/05/17 08:23:31;;;;;;;1999.90;999.90;;;;;;;18.05;88.57;95002.19;5072518;28;20288;-59
2021/05/17 08:25:59;;;;;;;1999.90;999.90;;;;;;;18.16;86.88;95012.13;5072658;28;20193;-58
2021/05/17 08:28:26;;;;;;;1999.90;999.90;;;;;;;18.16;87.23;95009.47;5072271;28;20710;-59
2021/05/17 08:30:57;;;;;;;1999.90;999.90;;;;;;;17.56;90.47;95014.47;5072272;28;20648;-59
2021/05/17 08:33:25;;;;;;;1999.90;999.90;;;;;;;17.61;91.81;95024.75;5071063;28;20700;-59
2021/05/17 08:35:52;;;;;;;1999.90;999.90;;;;;;;17.67;91.64;95025.22;5072463;28;20264;-60
2021/05/17 08:38:19;;;;;;;1999.90;999.90;;;;;;;17.45;92.23;95027.41;5072229;28;20197;-59
2021/05/17 08:40:47;;;;;;;1999.90;999.90;;;;;;;17.53;91.89;95023.81;5071962;28;20287;-59
2021/05/17 08:43:15;;;;;;;1999.90;999.90;;;;;;;17.79;92.14;95023.16;5072025;28;20565;-60
2021/05/17 08:45:44;;;;;;;1999.90;999.90;;;;;;;18.04;91.56;95021.69;5072134;28;20204;-60
2021/05/17 08:48:11;;;;;;;1999.90;999.90;;;;;;;18.24;90.09;95021.63;5071865;28;20841;-56
2021/05/17 08:50:38;;;;;;;1999.90;999.90;;;;;;;18.34;91.38;95021.03;5072427;28;20747;-58
2021/05/17 08:53:06;;;;;;;1999.90;999.90;;;;;;;18.49;90.10;95018.25;5072063;28;20203;-58
2021/05/17 08:55:35;;;;;;;1999.90;999.90;;;;;;;18.63;86.98;95022.97;5071863;28;20200;-59
2021/05/17 08:58:02;;;;;;;1999.90;999.90;;;;;;;18.89;86.08;95020.31;5071949;28;20197;-59
2021/05/17 09:00:30;;;;;;;1999.90;999.90;;;;;;;18.91;86.21;95022.59;5071759;28;20196;-60
2021/05/17 09:02:57;;;;;;;1999.90;999.90;;;;;;;19.09;89.06;95028.84;5071585;28;20192;-60
2021/05/17 09:05:25;;;;;;;1999.90;999.90;;;;;;;19.24;88.45;95029.75;5071642;28;20211;-60
2021/05/17 09:07:54;;;;;;;1999.90;999.90;;;;;;;19.44;87.32;95019.81;5071487;28;20246;-60
2021/05/17 09:10:22;;;;;;;1999.90;999.90;;;;;;;19.63;88.37;95017.78;5071710;28;20196;-59
2021/05/17 09:12:58;;;;;;;1999.90;999.90;;;;;;;19.83;87.51;95014.94;5071316;28;20268;-59
2021/05/17 09:15:35;;;;;;;1999.90;999.90;;;;;;;20.14;86.11;95017.84;5071828;28;20207;-59
2021/05/17 09:18:05;;;;;;;1999.90;999.90;;;;;;;20.10;83.91;95027.63;5071913;28;20201;-59
2021/05/17 09:20:36;;;;;;;1999.90;999.90;;;;;;;19.99;82.99;95023.38;5071499;28;20299;-59
2021/05/17 09:23:13;;;;;;;1999.90;999.90;;;;;;;20.18;84.61;95012.59;5071486;28;20199;-59
2021/05/17 09:25:54;;;;;;;1999.90;999.90;;;;;;;20.07;83.39;95007.25;5071687;28;20216;-59
2021/05/17 09:28:25;;;;;;;1999.90;999.90;;;;;;;20.06;81.00;95010.25;5071266;28;20250;-58
2021/05/17 09:30:55;;;;;;;1999.90;999.90;;;;;;;19.70;79.31;95012.59;5071233;28;20199;-59
2021/05/17 09:33:23;;;;;;;1999.90;999.90;;;;;;;19.53;81.40;95013.16;5071233;28;20265;-56
2021/05/17 09:35:50;;;;;;;1999.90;999.90;;;;;;;19.51;84.52;95004.09;5071007;28;20663;-58
2021/05/17 09:38:22;;;;;;;1999.90;999.90;;;;;;;19.45;86.58;95003.66;5071288;28;20200;-59
2021/05/17 09:41:00;;;;;;;1999.90;999.90;;;;;;;19.78;85.73;95005.47;5071375;28;20678;-58
2021/05/17 09:43:28;;;;;;;1999.90;999.90;;;;;;;19.45;84.12;95014.22;5070833;28;20200;-60
2021/05/17 09:45:56;;;;;;;1999.90;999.90;;;;;;;19.59;83.78;95014.34;5070451;28;20747;-61
2021/05/17 09:48:24;;;;;;;1999.90;999.90;;;;;;;19.62;84.71;95003.09;5070984;28;20285;-61
2021/05/17 09:51:02;;;;;;;1999.90;999.90;;;;;;;19.43;86.19;94990.06;5070910;28;20200;-61
2021/05/17 09:53:30;;;;;;;1999.90;999.90;;;;;;;19.30;83.26;94991.44;5071069;28;20193;-59
2021/05/17 09:55:57;;;;;;;1999.90;999.90;;;;;;;19.54;84.98;94985.69;5070840;28;20192;-59
2021/05/17 09:58:30;;;;;;;1999.90;999.90;;;;;;;19.89;82.59;94985.25;5070633;28;20671;-59
2021/05/17 10:01:10;;;;;;;1999.90;999.90;;;;;;;20.32;82.33;94981.06;5070690;28;20181;-59
2021/05/17 10:03:39;;;;;;;1999.90;999.90;;;;;;;20.59;78.51;94981.59;5070615;28;20690;-59
2021/05/17 10:06:12;;;;;;;1999.90;999.90;;;;;;;20.75;77.15;94983.94;5070704;28;20315;-59
2021/05/17 10:08:39;;;;;;;1999.90;999.90;;;;;;;20.68;80.49;94965.41;5070551;28;20270;-58
2021/05/17 10:11:07;;;;;;;1999.90;999.90;;;;;;;20.55;75.60;94965.75;5070551;28;20212;-59
2021/05/17 10:13:35;;;;;;;1999.90;999.90;;;;;;;20.83;69.42;94964.34;5070525;28;20232;-59
2021/05/17 10:16:08;;;;;;;1999.90;999.90;;;;;;;20.98;73.84;94963.28;5070414;28;20196;-58
2021/05/17 10:18:36;;;;;;;1999.90;999.90;;;;;;;21.17;75.25;94962.25;5070688;28;20193;-60
2021/05/17 10:21:04;;;;;;;1999.90;999.90;;;;;;;20.88;73.58;94962.09;5070241;28;20303;-59
2021/05/17 10:23:30;;;;;;;1999.90;999.90;;;;;;;20.23;67.66;94977.19;5070676;28;20196;-61
2021/05/17 10:26:12;;;;;;;1999.90;999.90;;;;;;;20.03;71.95;94971.41;5070245;28;20200;-58
2021/05/17 10:28:43;;;;;;;1999.90;999.90;;;;;;;19.69;70.55;94966.25;5070117;28;20235;-59
2021/05/17 10:31:13;;;;;;;1999.90;999.90;;;;;;;19.71;74.37;94969.28;5070449;28;20210;-58
2021/05/17 10:33:42;;;;;;;1999.90;999.90;;;;;;;19.69;73.71;94974.16;5070190;28;20199;-58
2021/05/17 10:36:10;;;;;;;1999.90;999.90;;;;;;;19.43;72.14;94966.34;5070686;28;20250;-59
2021/05/17 10:38:51;;;;;;;1999.90;999.90;;;;;;;19.04;74.08;94965.94;5070569;28;20200;-59
2021/05/17 10:41:40;;;;;;;1999.90;999.90;;;;;;;18.77;76.88;94965.25;5070504;28;20192;-60
2021/05/17 10:44:14;;;;;;;1999.90;999.90;;;;;;;18.80;78.53;94956.63;5070113;28;20250;-59
2021/05/17 10:46:46;;;;;;;1999.90;999.90;;;;;;;18.85;79.81;94958.19;5069980;28;20201;-59
2021/05/17 10:49:38;;;;;;;1999.90;999.90;;;;;;;19.00;80.75;94962.50;5070162;28;20228;-60
2021/05/17 10:52:24;;;;;;;1999.90;999.90;;;;;;;18.88;79.97;94971.41;5055336;28;20283;-59
2021/05/17 10:55:03;;;;;;;1999.90;999.90;;;;;;;18.69;78.37;94958.38;5070220;28;20242;-58
2021/05/17 10:57:33;;;;;;;1999.90;999.90;;;;;;;18.63;78.31;94962.44;5073247;28;20200;-59
2021/05/17 11:02:46;;;;;;;1999.90;999.90;;;;;;;18.54;84.49;94961.94;5073140;28;20539;-59
2021/05/17 11:05:16;;;;;;;1999.90;999.90;;;;;;;18.64;81.65;94960.56;5074342;28;20207;-60
2021/05/17 11:07:49;;;;;;;1999.90;999.90;;;;;;;18.60;83.96;94959.75;5074049;28;20249;-59
2021/05/17 11:10:21;;;;;;;1999.90;999.90;;;;;;;18.38;84.06;94963.97;5074082;28;20710;-58
2021/05/17 11:13:16;;;;;;;1999.90;999.90;;;;;;;18.25;83.11;94955.50;5073948;28;20228;-61
2021/05/17 11:16:06;;;;;;;1999.90;999.90;;;;;;;17.97;84.95;94960.38;5073713;28;20203;-61
2021/05/17 11:18:39;;;;;;;1999.90;999.90;;;;;;;17.87;83.97;94971.47;5073775;28;20671;-60